Time;durP1;ratioP1;P1;durP2;ratioP2;P2;SDS_P1;SDS_P2;PMS_P1;PMS_P2;Temp;Humidity;BMP_temperature;BMP_pressure;BME280_temperature;BME280_humidity;BME280_pressure;Samples;Min_cycle;Max_cycle;Signal;HPM_P1;HPM_P2
2023/11/17 00:02:31;;;;;;;5.15;1.77;;;;;;;;;;10553465;28;20386;-76
2023/11/17 00:07:36;;;;;;;1.92;1.00;;;;;;;;;;10556037;28;20583;-76
2023/11/17 00:12:42;;;;;;;3.47;1.50;;;;;;;;;;10554589;28;20042;-76
2023/11/17 00:17:51;;;;;;;2.05;1.20;;;;;;;;;;10536665;28;20896;-78
2023/11/17 00:22:55;;;;;;;1.80;1.20;;;;;;;;;;10534418;28;20064;-77
2023/11/17 00:28:02;;;;;;;1.23;0.60;;;;;;;;;;10551221;28;20412;-77
2023/11/17 00:33:08;;;;;;;0.80;0.60;;;;;;;;;;10563521;27;20036;-77
2023/11/17 00:38:15;;;;;;;0.95;0.70;;;;;;;;;;10556940;27;20043;-77
2023/11/17 00:43:18;;;;;;;;;;;;;;;;;;10545597;27;20043;-77
2023/11/17 00:48:27;;;;;;;2.28;1.00;;;;;;;;;;10581508;27;20407;-77
2023/11/17 00:53:31;;;;;;;4.45;1.80;;;;;;;;;;10563900;27;20035;-75
2023/11/17 00:58:37;;;;;;;4.00;2.10;;;;;;;;;;10568789;27;20039;-76
2023/11/17 01:03:42;;;;;;;4.30;2.10;;;;;;;;;;10563134;28;20446;-76
2023/11/17 01:08:47;;;;;;;4.45;1.83;;;;;;;;;;10546194;27;20040;-77
2023/11/17 01:13:51;;;;;;;2.00;1.40;;;;;;;;;;10561045;27;20501;-77
2023/11/17 01:19:01;;;;;;;2.90;1.60;;;;;;;;;;10563833;27;20043;-78
2023/11/17 01:24:13;;;;;;;2.78;1.50;;;;;;;;;;10530240;27;20043;-78
2023/11/17 01:29:28;;;;;;;2.25;1.23;;;;;;;;;;10538323;27;20461;-76
2023/11/17 01:34:36;;;;;;;1.73;0.80;;;;;;;;;;10557337;27;20156;-76
2023/11/17 01:39:42;;;;;;;1.40;0.95;;;;;;;;;;10540748;27;20036;-78
2023/11/17 01:44:46;;;;;;;0.88;0.60;;;;;;;;;;10554442;27;20468;-77
2023/11/17 01:49:50;;;;;;;0.60;0.55;;;;;;;;;;10552155;27;20769;-78
2023/11/17 01:55:05;;;;;;;1.08;0.52;;;;;;;;;;10540430;27;20036;-76
2023/11/17 02:00:13;;;;;;;0.85;0.75;;;;;;;;;;10540043;27;20048;-77
2023/11/17 02:05:27;;;;;;;0.95;0.63;;;;;;;;;;10555321;27;20058;-76
2023/11/17 02:10:37;;;;;;;0.63;0.63;;;;;;;;;;10558877;27;20035;-76
2023/11/17 02:15:43;;;;;;;0.90;0.60;;;;;;;;;;10558310;28;20127;-78
2023/11/17 02:21:02;;;;;;;1.02;0.80;;;;;;;;;;10552260;27;20099;-77
2023/11/17 02:26:21;;;;;;;1.00;0.50;;;;;;;;;;10555124;27;20040;-76
2023/11/17 02:31:36;;;;;;;1.08;0.50;;;;;;;;;;10534742;27;20048;-77
2023/11/17 02:36:39;;;;;;;;;;;;;;;;;;10521623;28;20447;-76
2023/11/17 02:41:56;;;;;;;0.63;0.50;;;;;;;;;;10555889;27;19935;-76
2023/11/17 02:47:03;;;;;;;0.50;0.50;;;;;;;;;;10540157;27;20039;-76
2023/11/17 02:52:09;;;;;;;0.73;0.60;;;;;;;;;;10536735;27;20074;-75
2023/11/17 02:57:14;;;;;;;1.70;1.02;;;;;;;;;;10518005;28;20032;-76
2023/11/17 03:02:21;;;;;;;0.93;0.70;;;;;;;;;;10555125;28;20060;-76
2023/11/17 03:07:26;;;;;;;1.25;0.80;;;;;;;;;;10552420;28;20044;-75
2023/11/17 03:12:31;;;;;;;1.02;0.85;;;;;;;;;;10553131;27;20051;-76
2023/11/17 03:17:35;;;;;;;0.98;0.50;;;;;;;;;;10551707;27;20120;-76
2023/11/17 03:22:45;;;;;;;0.73;0.60;;;;;;;;;;10532998;27;20051;-76
2023/11/17 03:27:50;;;;;;;2.50;1.02;;;;;;;;;;10557283;28;20396;-75
2023/11/17 03:32:59;;;;;;;1.02;0.77;;;;;;;;;;10557014;28;20461;-75
2023/11/17 03:38:04;;;;;;;0.70;0.70;;;;;;;;;;10557751;28;21074;-75
2023/11/17 03:43:08;;;;;;;1.48;0.95;;;;;;;;;;10559017;27;20609;-75
2023/11/17 03:48:13;;;;;;;1.30;0.80;;;;;;;;;;10531452;28;20044;-75
2023/11/17 03:53:18;;;;;;;1.17;0.65;;;;;;;;;;10536643;28;20161;-75
2023/11/17 03:58:22;;;;;;;0.57;0.50;;;;;;;;;;10540019;28;20050;-76
2023/11/17 04:03:31;;;;;;;0.88;0.68;;;;;;;;;;10540102;28;20050;-75
2023/11/17 04:08:40;;;;;;;1.88;0.90;;;;;;;;;;10544669;28;20053;-75
2023/11/17 04:13:47;;;;;;;1.13;0.68;;;;;;;;;;10532385;27;20043;-77
2023/11/17 04:18:56;;;;;;;0.75;0.60;;;;;;;;;;10565010;28;20089;-76
2023/11/17 04:24:02;;;;;;;0.52;0.40;;;;;;;;;;10563660;27;20040;-76
2023/11/17 04:29:06;;;;;;;0.40;0.40;;;;;;;;;;10547629;28;20040;-76
2023/11/17 04:34:11;;;;;;;2.13;0.50;;;;;;;;;;10529636;27;20035;-76
2023/11/17 04:39:18;;;;;;;0.20;0.20;;;;;;;;;;10565651;27;20076;-76
2023/11/17 04:44:27;;;;;;;0.40;0.40;;;;;;;;;;10561604;27;20037;-76
2023/11/17 04:49:33;;;;;;;0.28;0.28;;;;;;;;;;10562723;27;20060;-77
2023/11/17 04:54:40;;;;;;;0.47;0.47;;;;;;;;;;10564399;27;21352;-76
2023/11/17 04:59:44;;;;;;;0.50;0.50;;;;;;;;;;10567615;27;20051;-76
2023/11/17 05:04:54;;;;;;;1.05;0.63;;;;;;;;;;10550683;27;20055;-76
2023/11/17 05:10:01;;;;;;;0.98;0.57;;;;;;;;;;10577780;27;20052;-76
2023/11/17 05:15:12;;;;;;;0.80;0.63;;;;;;;;;;10573254;27;20042;-76
2023/11/17 05:20:24;;;;;;;1.35;0.90;;;;;;;;;;10564939;28;20130;-77
2023/11/17 05:25:29;;;;;;;0.70;0.70;;;;;;;;;;10564347;27;20489;-77
2023/11/17 05:30:36;;;;;;;0.90;0.70;;;;;;;;;;10561823;28;20104;-77
2023/11/17 05:35:42;;;;;;;0.80;0.75;;;;;;;;;;10550344;28;20036;-77
2023/11/17 05:40:46;;;;;;;1.35;0.88;;;;;;;;;;10557092;27;20044;-76
2023/11/17 05:45:53;;;;;;;0.88;0.88;;;;;;;;;;10564062;27;20576;-77
2023/11/17 05:51:05;;;;;;;1.30;0.98;;;;;;;;;;10539466;28;20067;-76
2023/11/17 05:56:11;;;;;;;2.05;0.88;;;;;;;;;;10559709;28;20050;-77
2023/11/17 06:01:16;;;;;;;2.78;1.30;;;;;;;;;;10541196;28;20050;-75
2023/11/17 06:06:24;;;;;;;1.65;1.30;;;;;;;;;;10556317;27;20040;-75
2023/11/17 06:11:32;;;;;;;1.80;1.30;;;;;;;;;;10560953;28;20039;-78
2023/11/17 06:16:42;;;;;;;2.45;1.73;;;;;;;;;;10567442;27;20035;-76
2023/11/17 06:21:47;;;;;;;3.20;1.65;;;;;;;;;;10539621;27;20203;-77
2023/11/17 06:26:51;;;;;;;2.47;1.45;;;;;;;;;;10535827;28;20040;-76
2023/11/17 06:31:54;;;;;;;0.93;0.90;;;;;;;;;;10539930;27;20055;-76
2023/11/17 06:37:05;;;;;;;2.45;1.42;;;;;;;;;;10563580;27;20115;-76
2023/11/17 06:42:11;;;;;;;1.98;1.40;;;;;;;;;;10556441;27;20453;-77
2023/11/17 06:47:16;;;;;;;3.97;1.95;;;;;;;;;;10555937;28;20035;-75
2023/11/17 06:52:21;;;;;;;2.35;1.25;;;;;;;;;;10549334;27;20046;-76
2023/11/17 06:57:27;;;;;;;2.20;1.40;;;;;;;;;;10553490;27;20530;-75
2023/11/17 07:02:40;;;;;;;3.05;1.42;;;;;;;;;;10534111;28;20039;-76
2023/11/17 07:07:45;;;;;;;2.58;1.30;;;;;;;;;;10554917;27;20031;-75
2023/11/17 07:12:51;;;;;;;6.50;1.90;;;;;;;;;;10547504;28;20069;-75
2023/11/17 07:17:56;;;;;;;4.68;1.25;;;;;;;;;;10549273;27;20035;-76
2023/11/17 07:23:08;;;;;;;3.45;1.80;;;;;;;;;;10558287;27;20071;-75
2023/11/17 07:28:12;;;;;;;3.75;1.60;;;;;;;;;;10556719;27;20040;-76
2023/11/17 07:33:18;;;;;;;2.67;1.33;;;;;;;;;;10554503;28;20131;-75
2023/11/17 07:38:30;;;;;;;1.30;1.00;;;;;;;;;;10532721;28;20135;-76
2023/11/17 07:43:33;;;;;;;2.28;1.15;;;;;;;;;;10559997;27;20051;-76
2023/11/17 07:48:40;;;;;;;2.70;1.50;;;;;;;;;;10531836;28;20047;-75
2023/11/17 07:54:01;;;;;;;1.65;1.20;;;;;;;;;;10544502;28;20042;-77
2023/11/17 07:59:12;;;;;;;3.63;1.52;;;;;;;;;;10537012;28;20047;-76
2023/11/17 08:04:17;;;;;;;2.13;1.52;;;;;;;;;;10546001;28;20043;-76
2023/11/17 08:09:39;;;;;;;4.10;1.52;;;;;;;;;;10548605;28;20050;-76
2023/11/17 08:14:45;;;;;;;2.15;1.15;;;;;;;;;;10529322;28;20104;-76
2023/11/17 08:19:50;;;;;;;1.45;1.00;;;;;;;;;;10529894;28;20161;-76
2023/11/17 08:24:55;;;;;;;4.15;1.80;;;;;;;;;;10531387;28;20496;-76
2023/11/17 08:30:07;;;;;;;3.35;1.85;;;;;;;;;;10549745;28;20153;-78
2023/11/17 08:35:12;;;;;;;1.40;1.05;;;;;;;;;;10511086;28;20131;-76
2023/11/17 08:40:29;;;;;;;3.35;2.00;;;;;;;;;;10518529;28;20061;-77
2023/11/17 08:45:47;;;;;;;1.58;1.17;;;;;;;;;;10529417;28;20062;-75
2023/11/17 08:50:56;;;;;;;4.38;1.98;;;;;;;;;;10529237;28;20043;-76
2023/11/17 08:56:02;;;;;;;2.55;1.55;;;;;;;;;;10557483;27;20036;-76
2023/11/17 09:01:17;;;;;;;2.75;1.70;;;;;;;;;;10551478;27;20146;-76
2023/11/17 09:06:23;;;;;;;3.25;1.63;;;;;;;;;;10560348;27;20550;-76
2023/11/17 09:11:27;;;;;;;5.05;2.28;;;;;;;;;;10555821;27;20461;-77
2023/11/17 09:16:34;;;;;;;3.03;1.70;;;;;;;;;;10551863;27;20055;-76
2023/11/17 09:21:53;;;;;;;3.92;1.85;;;;;;;;;;10556619;27;20129;-76
2023/11/17 09:26:58;;;;;;;2.58;1.67;;;;;;;;;;10536266;27;20042;-76
2023/11/17 09:32:07;;;;;;;3.53;1.90;;;;;;;;;;10569720;27;20484;-77
2023/11/17 09:37:11;;;;;;;4.38;2.10;;;;;;;;;;10557778;27;20192;-77
2023/11/17 09:42:16;;;;;;;1.75;1.30;;;;;;;;;;10541869;28;20442;-76
2023/11/17 09:47:27;;;;;;;5.83;2.17;;;;;;;;;;10536104;27;20082;-75
2023/11/17 09:52:30;;;;;;;3.67;2.00;;;;;;;;;;10540776;27;20577;-75
2023/11/17 09:57:40;;;;;;;2.05;1.42;;;;;;;;;;10546198;27;20118;-77
2023/11/17 10:02:50;;;;;;;2.40;1.60;;;;;;;;;;10534850;28;20036;-78
2023/11/17 10:07:56;;;;;;;2.03;1.45;;;;;;;;;;10567092;27;20040;-77
2023/11/17 10:13:01;;;;;;;2.58;1.75;;;;;;;;;;10534435;27;20075;-77
2023/11/17 10:18:07;;;;;;;1.52;1.20;;;;;;;;;;10550791;28;20048;-77
2023/11/17 10:23:11;;;;;;;2.83;1.40;;;;;;;;;;10533405;27;20452;-77
2023/11/17 10:28:17;;;;;;;2.80;1.65;;;;;;;;;;10539597;28;20427;-76
2023/11/17 10:33:31;;;;;;;2.20;1.50;;;;;;;;;;10552542;27;20055;-77
2023/11/17 10:38:40;;;;;;;1.65;1.20;;;;;;;;;;10532456;27;20040;-76
2023/11/17 10:43:48;;;;;;;2.83;1.42;;;;;;;;;;10550799;27;20547;-78
2023/11/17 10:49:12;;;;;;;2.67;1.67;;;;;;;;;;10521660;27;20074;-76
2023/11/17 10:54:20;;;;;;;2.85;1.48;;;;;;;;;;10532864;27;20489;-76
2023/11/17 10:59:34;;;;;;;2.42;1.50;;;;;;;;;;10535423;28;20497;-76
2023/11/17 11:10:27;;;;;;;1.75;1.20;;;;;;;;;;10552278;27;20063;-76
2023/11/17 11:15:41;;;;;;;4.38;2.30;;;;;;;;;;10538654;28;20059;-77
2023/11/17 11:20:47;;;;;;;4.45;2.30;;;;;;;;;;10535273;28;20063;-77
2023/11/17 11:26:07;;;;;;;4.82;2.00;;;;;;;;;;10533689;27;20119;-77
2023/11/17 11:31:19;;;;;;;3.97;2.38;;;;;;;;;;10550861;27;22238;-77
2023/11/17 11:36:30;;;;;;;2.88;1.73;;;;;;;;;;10531057;28;20087;-77
2023/11/17 11:41:47;;;;;;;7.80;2.15;;;;;;;;;;10523810;27;20054;-75
2023/11/17 11:46:53;;;;;;;2.60;1.83;;;;;;;;;;10518895;28;20047;-75
2023/11/17 11:52:00;;;;;;;6.05;2.88;;;;;;;;;;10550273;28;20058;-76
2023/11/17 11:57:23;;;;;;;4.00;1.80;;;;;;;;;;10530005;28;20036;-76
2023/11/17 12:02:32;;;;;;;4.18;1.50;;;;;;;;;;10548580;28;20047;-79
2023/11/17 12:07:43;;;;;;;2.35;1.40;;;;;;;;;;10529077;28;20122;-76
2023/11/17 12:12:52;;;;;;;2.60;1.55;;;;;;;;;;10531662;28;20043;-76
2023/11/17 12:18:11;;;;;;;2.42;1.65;;;;;;;;;;10549168;28;20031;-77
2023/11/17 12:23:41;;;;;;;1.35;0.98;;;;;;;;;;10517207;28;20104;-77
2023/11/17 12:28:57;;;;;;;4.25;2.10;;;;;;;;;;10558069;28;20036;-75
2023/11/17 12:34:01;;;;;;;3.10;1.73;;;;;;;;;;10555954;28;20063;-76
2023/11/17 12:39:07;;;;;;;3.88;2.05;;;;;;;;;;10559668;27;20146;-75
2023/11/17 12:44:23;;;;;;;2.25;1.70;;;;;;;;;;10555238;27;20093;-75
2023/11/17 12:49:53;;;;;;;3.97;1.80;;;;;;;;;;10531723;28;20157;-76
2023/11/17 12:55:04;;;;;;;5.43;2.78;;;;;;;;;;10557279;27;20051;-76
2023/11/17 13:00:20;;;;;;;4.63;2.20;;;;;;;;;;10552439;27;20614;-75
2023/11/17 13:05:26;;;;;;;3.92;2.40;;;;;;;;;;10550356;27;20423;-75
2023/11/17 13:10:31;;;;;;;3.83;2.28;;;;;;;;;;10535169;27;20047;-75
2023/11/17 13:15:36;;;;;;;2.67;1.50;;;;;;;;;;10539614;27;20420;-76
2023/11/17 13:20:40;;;;;;;1.67;1.17;;;;;;;;;;10558066;27;20040;-75
2023/11/17 13:31:31;;;;;;;2.47;1.40;;;;;;;;;;10554284;27;20043;-76
2023/11/17 13:36:38;;;;;;;3.53;1.60;;;;;;;;;;10539399;27;20074;-76
2023/11/17 13:41:43;;;;;;;1.98;1.40;;;;;;;;;;10551665;27;20050;-76
2023/11/17 13:46:52;;;;;;;3.17;1.85;;;;;;;;;;10553877;27;20031;-76
2023/11/17 13:51:57;;;;;;;4.28;1.70;;;;;;;;;;10536786;27;20132;-75
2023/11/17 13:57:01;;;;;;;5.13;1.90;;;;;;;;;;10540987;28;20042;-75
2023/11/17 14:02:10;;;;;;;3.03;2.08;;;;;;;;;;10550378;27;20051;-76
2023/11/17 14:07:28;;;;;;;3.35;1.92;;;;;;;;;;10554488;27;20555;-76
2023/11/17 14:12:35;;;;;;;2.90;1.73;;;;;;;;;;10538897;27;20285;-77
2023/11/17 14:17:43;;;;;;;4.07;2.05;;;;;;;;;;10521065;28;20043;-75
2023/11/17 14:22:48;;;;;;;3.60;2.00;;;;;;;;;;10538129;27;20568;-75
2023/11/17 14:27:59;;;;;;;3.88;2.13;;;;;;;;;;10539284;28;20032;-75
2023/11/17 14:33:11;;;;;;;6.78;2.67;;;;;;;;;;10549740;27;20151;-74
2023/11/17 14:38:16;;;;;;;9.85;3.80;;;;;;;;;;10550708;27;20044;-74
2023/11/17 14:43:32;;;;;;;6.50;2.90;;;;;;;;;;10537891;27;20039;-76
2023/11/17 14:48:38;;;;;;;5.07;2.65;;;;;;;;;;10551604;27;20035;-76
2023/11/17 14:53:42;;;;;;;4.78;2.35;;;;;;;;;;10548617;27;20405;-74
2023/11/17 15:04:08;;;;;;;6.05;2.78;;;;;;;;;;10551436;27;20044;-75
2023/11/17 15:09:13;;;;;;;3.30;1.30;;;;;;;;;;10552996;27;20350;-75
2023/11/17 15:14:21;;;;;;;8.02;3.22;;;;;;;;;;10552847;28;20489;-75
2023/11/17 15:19:29;;;;;;;7.57;3.70;;;;;;;;;;10551646;28;20035;-76
2023/11/17 15:24:34;;;;;;;8.45;3.50;;;;;;;;;;10511599;27;20035;-75
2023/11/17 15:29:43;;;;;;;2.80;1.48;;;;;;;;;;10537809;28;20040;-76
2023/11/17 15:34:48;;;;;;;3.83;1.90;;;;;;;;;;10552093;27;20458;-76
2023/11/17 15:39:53;;;;;;;2.60;1.40;;;;;;;;;;10563041;27;20042;-76
2023/11/17 15:44:58;;;;;;;6.10;2.45;;;;;;;;;;10531604;28;20054;-75
2023/11/17 15:50:12;;;;;;;2.97;1.52;;;;;;;;;;10542566;28;20192;-74
2023/11/17 15:55:18;;;;;;;4.50;2.53;;;;;;;;;;10521399;28;20100;-76
2023/11/17 16:00:26;;;;;;;7.60;3.38;;;;;;;;;;10528456;27;20043;-75
2023/11/17 16:05:35;;;;;;;6.82;2.97;;;;;;;;;;10554936;27;20061;-76
2023/11/17 16:10:40;;;;;;;6.22;2.85;;;;;;;;;;10554961;28;20069;-76
2023/11/17 16:15:47;;;;;;;5.30;2.53;;;;;;;;;;10566881;28;20040;-75
2023/11/17 16:21:09;;;;;;;4.65;2.50;;;;;;;;;;10565611;27;20051;-76
2023/11/17 16:26:14;;;;;;;3.03;1.88;;;;;;;;;;10556768;27;20048;-75
2023/11/17 16:31:22;;;;;;;4.15;2.00;;;;;;;;;;10546191;28;20048;-78
2023/11/17 16:36:45;;;;;;;5.63;2.50;;;;;;;;;;10547811;28;20054;-77
2023/11/17 16:41:52;;;;;;;7.13;3.88;;;;;;;;;;10526910;28;20068;-76
2023/11/17 16:46:58;;;;;;;4.25;2.55;;;;;;;;;;10565350;27;20481;-76
2023/11/17 16:52:09;;;;;;;2.85;1.67;;;;;;;;;;10571497;27;20454;-77
2023/11/17 16:57:16;;;;;;;4.05;2.20;;;;;;;;;;10551204;27;20070;-77
2023/11/17 17:02:20;;;;;;;4.35;2.25;;;;;;;;;;10555510;28;20489;-77
2023/11/17 17:07:26;;;;;;;5.32;2.83;;;;;;;;;;10568755;28;20047;-76
2023/11/17 17:12:41;;;;;;;5.28;2.65;;;;;;;;;;10568080;28;20070;-78
2023/11/17 17:17:46;;;;;;;2.57;1.40;;;;;;;;;;10568205;27;20048;-76
2023/11/17 17:22:56;;;;;;;4.75;1.80;;;;;;;;;;10575215;27;21563;-77
2023/11/17 17:28:01;;;;;;;4.07;2.20;;;;;;;;;;10570426;28;20039;-76
2023/11/17 17:33:09;;;;;;;2.58;1.60;;;;;;;;;;10570232;27;20105;-77
2023/11/17 17:38:17;;;;;;;6.22;2.80;;;;;;;;;;10569393;28;20067;-78
2023/11/17 17:43:22;;;;;;;5.15;2.33;;;;;;;;;;10552196;27;20046;-76
2023/11/17 17:48:32;;;;;;;5.30;2.65;;;;;;;;;;10550040;28;20089;-77
2023/11/17 17:53:43;;;;;;;4.50;2.80;;;;;;;;;;10575027;27;20047;-77
2023/11/17 17:58:49;;;;;;;3.55;2.33;;;;;;;;;;10564516;28;20036;-76
2023/11/17 18:04:08;;;;;;;3.15;2.30;;;;;;;;;;10545575;28;20404;-78
2023/11/17 18:09:23;;;;;;;7.70;3.17;;;;;;;;;;10572186;27;20140;-77
2023/11/17 18:14:29;;;;;;;6.28;3.40;;;;;;;;;;10556304;27;20053;-76
2023/11/17 18:19:34;;;;;;;4.25;2.55;;;;;;;;;;10553091;27;20143;-76
2023/11/17 18:24:40;;;;;;;3.95;2.20;;;;;;;;;;10551618;28;20063;-76
2023/11/17 18:29:44;;;;;;;5.18;2.78;;;;;;;;;;10547933;28;20519;-76
2023/11/17 18:34:50;;;;;;;3.67;2.13;;;;;;;;;;10569478;27;20036;-76
2023/11/17 18:39:55;;;;;;;4.32;2.42;;;;;;;;;;10542471;28;20040;-74
2023/11/17 18:45:03;;;;;;;1.75;1.13;;;;;;;;;;10544435;27;20461;-76
2023/11/17 18:50:10;;;;;;;2.83;1.83;;;;;;;;;;10568824;27;20784;-76
2023/11/17 18:55:18;;;;;;;3.38;1.50;;;;;;;;;;10560479;27;20584;-75
2023/11/17 19:00:24;;;;;;;2.50;1.70;;;;;;;;;;10536220;27;20035;-76
2023/11/17 19:05:32;;;;;;;2.72;1.20;;;;;;;;;;10570490;28;20043;-75
2023/11/17 19:10:40;;;;;;;2.75;1.60;;;;;;;;;;10535556;28;20427;-75
2023/11/17 19:15:47;;;;;;;2.90;1.50;;;;;;;;;;10547973;28;20597;-75
2023/11/17 19:20:53;;;;;;;;;;;;;;;;;;10570546;28;20059;-75
2023/11/17 19:26:07;;;;;;;4.22;1.92;;;;;;;;;;10569470;27;20389;-75
2023/11/17 19:31:16;;;;;;;2.47;1.50;;;;;;;;;;10546731;28;20035;-75
2023/11/17 19:36:20;;;;;;;3.45;2.22;;;;;;;;;;10569344;28;20134;-76
2023/11/17 19:41:32;;;;;;;2.05;1.08;;;;;;;;;;10572128;27;20043;-74
2023/11/17 19:46:39;;;;;;;5.90;1.92;;;;;;;;;;10562746;28;20039;-75
2023/11/17 19:51:49;;;;;;;6.75;3.70;;;;;;;;;;10549909;28;20035;-76
2023/11/17 19:56:55;;;;;;;4.70;2.20;;;;;;;;;;10571109;28;20036;-75
2023/11/17 20:02:02;;;;;;;5.70;2.67;;;;;;;;;;10533422;28;20044;-75
2023/11/17 20:07:08;;;;;;;5.43;1.92;;;;;;;;;;10567898;28;20404;-75
2023/11/17 20:12:19;;;;;;;4.82;2.35;;;;;;;;;;10570717;28;20035;-75
2023/11/17 20:17:27;;;;;;;6.93;3.40;;;;;;;;;;10551282;28;20044;-75
2023/11/17 20:23:06;;;;;;;5.22;2.70;;;;;;;;;;10548096;28;21763;-76
2023/11/17 20:28:14;;;;;;;6.22;3.60;;;;;;;;;;10572470;28;20051;-78
2023/11/17 20:33:27;;;;;;;3.38;2.10;;;;;;;;;;10570955;28;20047;-77
2023/11/17 20:38:47;;;;;;;4.82;1.73;;;;;;;;;;10568532;28;20036;-76
2023/11/17 20:43:55;;;;;;;10.40;3.42;;;;;;;;;;10562875;28;20126;-75
2023/11/17 20:49:07;;;;;;;6.88;3.33;;;;;;;;;;10540450;27;20115;-76
2023/11/17 20:54:16;;;;;;;8.75;3.83;;;;;;;;;;10577520;27;20134;-76
2023/11/17 20:59:26;;;;;;;6.05;3.35;;;;;;;;;;10559051;28;20048;-75
2023/11/17 21:04:38;;;;;;;4.20;2.22;;;;;;;;;;10576424;27;20048;-76
2023/11/17 21:10:11;;;;;;;8.05;3.92;;;;;;;;;;10559025;28;20113;-76
2023/11/17 21:15:22;;;;;;;6.33;3.47;;;;;;;;;;10571655;28;20413;-75
2023/11/17 21:20:44;;;;;;;3.38;1.92;;;;;;;;;;10550444;28;20044;-76
2023/11/17 21:25:49;;;;;;;7.28;3.75;;;;;;;;;;10569806;27;20452;-75
2023/11/17 21:30:56;;;;;;;5.53;2.88;;;;;;;;;;10552812;28;20036;-74
2023/11/17 21:36:10;;;;;;;7.15;3.17;;;;;;;;;;10561567;27;20142;-74
2023/11/17 21:41:15;;;;;;;6.90;3.42;;;;;;;;;;10562271;27;20044;-76
2023/11/17 21:46:22;;;;;;;6.63;3.22;;;;;;;;;;10543146;28;20420;-75
2023/11/17 21:51:27;;;;;;;3.95;2.15;;;;;;;;;;10561567;27;20515;-75
2023/11/17 21:56:33;;;;;;;6.72;3.60;;;;;;;;;;10562182;27;20059;-76
2023/11/17 22:01:41;;;;;;;7.40;3.47;;;;;;;;;;10557735;27;20419;-75
2023/11/17 22:06:53;;;;;;;7.55;2.90;;;;;;;;;;10558818;27;20578;-76
2023/11/17 22:12:11;;;;;;;8.32;3.72;;;;;;;;;;10559044;27;20031;-76
2023/11/17 22:17:22;;;;;;;7.13;3.05;;;;;;;;;;10573658;27;20054;-77
2023/11/17 22:22:33;;;;;;;5.75;2.70;;;;;;;;;;10540840;27;20477;-77
2023/11/17 22:27:37;;;;;;;7.50;3.63;;;;;;;;;;10555740;27;20153;-75
2023/11/17 22:32:51;;;;;;;6.82;3.50;;;;;;;;;;10558371;27;20043;-76
2023/11/17 22:37:56;;;;;;;7.72;3.35;;;;;;;;;;10544284;27;20729;-77
2023/11/17 22:43:05;;;;;;;6.93;3.35;;;;;;;;;;10538092;27;20633;-76
2023/11/17 22:48:21;;;;;;;9.55;3.60;;;;;;;;;;10555056;27;20519;-77
2023/11/17 22:53:29;;;;;;;7.93;3.55;;;;;;;;;;10553600;27;20043;-76
2023/11/17 22:58:37;;;;;;;5.32;2.40;;;;;;;;;;10554715;27;20075;-75
2023/11/17 23:03:43;;;;;;;7.68;3.22;;;;;;;;;;10533254;27;20039;-76
2023/11/17 23:08:57;;;;;;;5.40;2.22;;;;;;;;;;10530513;27;20051;-76
2023/11/17 23:14:01;;;;;;;8.05;3.47;;;;;;;;;;10551854;28;20611;-75
2023/11/17 23:19:15;;;;;;;3.95;2.05;;;;;;;;;;10550346;27;20065;-76
2023/11/17 23:24:25;;;;;;;6.40;2.33;;;;;;;;;;10555025;27;20520;-76
2023/11/17 23:29:29;;;;;;;10.02;3.88;;;;;;;;;;10538351;27;20063;-76
2023/11/17 23:34:34;;;;;;;7.63;3.60;;;;;;;;;;10534411;28;20071;-76
2023/11/17 23:39:41;;;;;;;10.88;4.25;;;;;;;;;;10533479;28;20141;-76
2023/11/17 23:44:53;;;;;;;8.68;4.22;;;;;;;;;;10524063;28;20147;-76
2023/11/17 23:49:58;;;;;;;9.95;3.80;;;;;;;;;;10551984;28;20044;-75
2023/11/17 23:55:06;;;;;;;7.95;3.78;;;;;;;;;;10554758;28;20237;-76
